Wilson Observed Data For Previous 48 Hours

Caption
Day and Hour Reservoir Elevation (behind dam)* Tailwater Elevation (below dam)* Average Hourly Discharge*
11/17/2017 1 AM CST 507.07 414.87 45,830
11/17/2017 2 AM CST 507.06 414.84 45,972
11/17/2017 3 AM CST 507.11 414.83 45,777
11/17/2017 4 AM CST 507.15 414.72 46,017
11/17/2017 5 AM CST 507.11 415.58 48,604
11/17/2017 6 AM CST 507.14 415.74 57,934
11/17/2017 7 AM CST 507.07 415.95 57,452
11/17/2017 8 AM CST 507.02 415.74 58,199
11/17/2017 9 AM CST 507.03 415.49 54,616
11/17/2017 10 AM CST 507.02 415.23 51,235
11/17/2017 11 AM CST 507.03 414.76 46,308
11/17/2017 12 PM CST 507.07 414.81 46,885
11/17/2017 1 PM CST 507.09 414.81 46,215
11/17/2017 2 PM CST 507.09 414.78 45,606
11/17/2017 3 PM CST 507.12 414.88 45,998
11/17/2017 4 PM CST 507.14 414.88 46,222
11/17/2017 5 PM CST 507.11 415.38 50,360
11/17/2017 6 PM CST 507.11 415.18 50,934
11/17/2017 7 PM CST 507.16 415.07 49,599
11/17/2017 8 PM CST 507.10 415.22 50,099
11/17/2017 9 PM CST 507.14 415.25 51,239
11/17/2017 10 PM CST 507.13 415.28 49,883
11/17/2017 11 PM CST 507.17 414.54 42,962
11/18/2017 12 AM CST 507.21 414.67 43,469
11/18/2017 1 AM CST 507.22 415.05 51,571
11/18/2017 2 AM CST 507.17 415.17 50,457
11/18/2017 3 AM CST 507.19 415.35 50,903
11/18/2017 4 AM CST 507.21 415.29 50,949
11/18/2017 5 AM CST 507.22 415.15 51,039
11/18/2017 6 AM CST 507.16 415.39 49,722
11/18/2017 7 AM CST 507.19 415.19 49,728
11/18/2017 8 AM CST 507.17 415.50 53,037
11/18/2017 9 AM CST 507.11 416.09 57,979
11/18/2017 10 AM CST 507.09 415.83 57,718
11/18/2017 11 AM CST 507.05 415.74 58,072
11/18/2017 12 PM CST 507.02 415.53 53,015
11/18/2017 1 PM CST 507.00 415.56 53,316
11/18/2017 2 PM CST 507.00 415.47 53,367
11/18/2017 3 PM CST 506.96 415.61 53,041
11/18/2017 4 PM CST 506.95 415.60 53,306
11/18/2017 5 PM CST 506.91 416.05 57,914
11/18/2017 6 PM CST 506.76 415.93 58,138
11/18/2017 7 PM CST 506.70 416.10 57,925
11/18/2017 8 PM CST 506.81 416.04 58,971
11/18/2017 9 PM CST 506.85 415.90 52,893
11/18/2017 10 PM CST 506.71 415.69 52,667
11/18/2017 11 PM CST 506.73 415.79 53,585
11/19/2017 12 AM CST 506.76 415.57 53,291
11/19/2017 1 AM CST 506.65 414.94 46,216
11/19/2017 2 AM CST 506.71 414.03 35,983
11/19/2017 3 AM CST 506.73 413.85 36,374

Elevations are in feet above sea level. Discharges are in cubic feet per second and are reported at the end of the hour.